• Join FlightAware (Why Join?)
  • Login
  • US Flag 
06:46PM EDT


 

Airport Tracker/Info


-or-


 

Live Flight TrackerFlight Track Log ✈ UCA5011 ✈ 28-Apr-2013 ✈ KCRW - KIAD

Flight Track Log - Related Links

Times and Time Zones

All times are in EDT time to prevent confusion due to time zone crossing. See the UCA5011 flight status page for this flight to view local times or setup timezone preferences in your user account.

Time Position Orientation Groundspeed Altitude Reporting Facility
EDT Latitude Longitude Course Direction KTS MPH feet Rate Location/Type
10:28AM 38.3389 -81.6136 82° East 121 139 3,000  Level Indianapolis Center
10:29AM 38.3361 -81.5583 94° East 188 216 4,400 1,260 Climbing Indianapolis Center
10:30AM 38.3642 -81.4972 60° Northeast 199 229 5,700 1,500 Climbing Indianapolis Center
10:31AM 38.3811 -81.4119 76° East 209 241 7,500 1,560 Climbing Indianapolis Center
10:32AM 38.3883 -81.3400 83° East 206 237 9,000 1,200 Climbing Indianapolis Center
10:33AM 38.3670 -81.4467 82° East  Level FlightAware Approximate
10:33AM 38.3947 -81.2642 84° East 216 249 10,100  Level Indianapolis Center
10:34AM 38.4006 -81.1825 85° East 231 266 11,300 1,200 Climbing Indianapolis Center
10:35AM 38.4089 -81.1019 82° East 231 266 12,600 1,200 Climbing Indianapolis Center
10:36AM 38.4164 -81.0214 83° East 230 265 13,800 960 Climbing Indianapolis Center
10:37AM 38.4239 -80.9364 84° East 240 276 14,600 1,020 Climbing Indianapolis Center
10:38AM 38.4328 -80.8311 84° East 248 285 15,900 1,020 Climbing Indianapolis Center
10:39AM 38.4392 -80.7433 85° East 254 292 16,700 480 Climbing Indianapolis Center
10:40AM 38.4458 -80.6514 85° East 261 300 16,900 60 Climbing Indianapolis Center
10:41AM 38.4539 -80.5489 84° East 288 331 16,900  Level Indianapolis Center
10:42AM 38.4642 -80.4433 83° East 293 337 16,900  Level Indianapolis Center
10:43AM 38.4736 -80.3336 84° East 284 327 17,000 60 Climbing Washington Center
10:44AM 38.4817 -80.2333 84° East 284 327 17,100  Climbing Washington Center
10:45AM 38.4897 -80.1331 84° East 284 327 17,100 -60 Level Washington Center
10:46AM 38.4978 -80.0353 84° East 284 327 17,000 -60 Descending Washington Center
10:47AM 38.5058 -79.9217 85° East 284 327 17,000  Level Washington Center
10:48AM 38.5136 -79.8214 84° East 284 327 17,000  Level Washington Center
10:49AM 38.5217 -79.7156 84° East 290 334 17,000  Level Washington Center
10:50AM 38.5292 -79.6125 85° East 290 334 17,000 -360 Level Washington Center
10:51AM 38.5367 -79.5122 85° East 299 344 16,300 -720 Descending Washington Center
10:52AM 38.5444 -79.4011 85° East 310 357 15,600 -780 Descending Washington Center
10:53AM 38.5542 -79.2900 84° East 310 357 14,800 -900 Descending Washington Center
10:54AM 38.5597 -79.1733 86° East 310 357 13,900 -960 Descending Washington Center
10:55AM 38.5692 -79.0675 83° East 310 357 12,900 -1,020 Descending Washington Center
10:56AM 38.5764 -78.9592 85° East 310 357 11,900 -1,020 Descending Washington Center
10:57AM 38.5836 -78.8531 85° East 310 357 10,900 -1,020 Descending Washington Center
10:58AM 38.5906 -78.7472 85° East 305 351 9,900 -1,020 Descending Washington Center
10:59AM 38.5953 -78.6439 87° East 299 344 8,900 -1,020 Descending Washington Center
11:00AM 38.6186 -78.5492 72° East 287 330 7,900 -960 Descending Washington Center
11:01AM 38.6622 -78.4658 56° Northeast 271 312 7,000 -480 Descending Washington Center
11:02AM 38.6853 -78.3789 71° East 271 312 7,000  Level Washington Center
11:03AM 38.7100 -78.2894 70° East 265 305 7,000 -120 Level Washington Center
11:04AM 38.7758 -78.2439 28° Northeast 255 293 6,800 -420 Descending Washington Center
11:05AM 38.8533 -78.2228 12° North 254 292 6,200 -420 Descending Washington Center
11:06AM 38.9028 -78.1497 49° Northeast 264 304 6,000 -120 Descending Washington Center
11:07AM 38.9172 -78.0647 78° East 237 273 6,000  Level Washington Center
11:08AM 38.9314 -77.9772 78° East 232 267 6,000  Level Washington Center
11:10AM 38.9500 -77.8167 81° East 246 283 6,000  Level Potomac TRACON
11:11AM 38.9667 -77.7333 76° East 242 278 6,000  Level Potomac TRACON
11:12AM 38.9500 -77.6500 104° East 237 273 6,000  Level Potomac TRACON
11:13AM 39.0000 -77.5833 46° Northeast 264 304 6,000 -60 Level Potomac TRACON
11:14AM 39.0667 -77.5667 11° North 253 291 5,900 -600 Descending Potomac TRACON
11:15AM 39.1333 -77.5667 360° North 253 291 4,900 -1,200 Descending Potomac TRACON
11:16AM 39.1500 -77.5000 72° East 232 267 3,500 -1,080 Descending Potomac TRACON
11:17AM 39.1000 -77.4667 153° Southeast 187 215 2,800 -900 Descending Potomac TRACON
11:18AM 39.0500 -77.4667 180° South 194 223 1,800 -1,020 Descending Potomac TRACON